createdAt,value
2019-01-05T00:02:13.123Z,86.20
2019-01-05T00:05:00.681Z,86.00
2019-01-05T00:07:59.919Z,86.10
2019-01-05T00:10:45.753Z,86.10
2019-01-05T00:13:35.803Z,86.40
2019-01-05T00:16:32.565Z,86.40
2019-01-05T00:19:25.978Z,86.20
2019-01-05T00:22:31.734Z,86.00
2019-01-05T00:25:30.456Z,85.60
2019-01-05T00:28:16.661Z,85.80
2019-01-05T00:31:20.329Z,86.50
2019-01-05T00:34:13.424Z,86.50
2019-01-05T00:37:04.526Z,86.70
2019-01-05T00:39:51.005Z,86.90
2019-01-05T00:42:38.812Z,87.40
2019-01-05T00:45:26.053Z,87.30
2019-01-05T00:48:21.411Z,87.30
2019-01-05T00:51:10.029Z,87.20
2019-01-05T00:54:09.827Z,86.90
2019-01-05T00:57:15.915Z,87.10
2019-01-05T01:00:01.846Z,86.80
2019-01-05T01:03:04.759Z,87.20
2019-01-05T01:05:57.891Z,87.20
2019-01-05T01:08:51.119Z,87.60
2019-01-05T01:11:32.497Z,87.40
2019-01-05T01:14:31.786Z,87.10
2019-01-05T01:17:28.225Z,87.00
2019-01-05T01:20:21.455Z,87.00
2019-01-05T01:23:11.665Z,87.10
2019-01-05T01:25:58.845Z,87.40
2019-01-05T01:29:01.768Z,87.20
2019-01-05T01:31:40.099Z,86.80
2019-01-05T01:34:25.609Z,86.80
2019-01-05T01:37:17.003Z,86.80
2019-01-05T01:40:05.002Z,87.10
2019-01-05T01:42:57.005Z,86.90
2019-01-05T01:45:50.787Z,87.20
2019-01-05T01:48:40.191Z,86.60
2019-01-05T01:51:27.099Z,86.90
2019-01-05T01:54:23.408Z,86.40
2019-01-05T01:57:10.765Z,86.30
2019-01-05T02:00:06.276Z,86.60
2019-01-05T02:02:55.554Z,86.60
2019-01-05T02:05:43.184Z,86.50
2019-01-05T02:08:33.258Z,87.20
2019-01-05T02:11:33.210Z,87.00
2019-01-05T02:14:39.416Z,86.70
2019-01-05T02:17:45.272Z,86.60
2019-01-05T02:20:40.814Z,87.00
2019-01-05T02:24:11.801Z,87.00
2019-01-05T02:27:25.984Z,87.30
2019-01-05T02:30:54.028Z,87.40
2019-01-05T02:34:32.048Z,87.70
2019-01-05T02:38:24.828Z,87.60
2019-01-05T02:42:13.769Z,87.20
2019-01-05T02:46:02.987Z,87.80
2019-01-05T02:49:33.781Z,89.00
2019-01-05T02:52:54.484Z,89.00
2019-01-05T02:56:21.601Z,88.80
2019-01-05T02:59:52.573Z,88.70
2019-01-05T03:03:15.349Z,89.40
2019-01-05T03:06:45.134Z,90.20
2019-01-05T03:10:23.406Z,89.80
2019-01-05T03:13:28.961Z,89.90
2019-01-05T03:16:59.694Z,89.40
2019-01-05T03:20:17.675Z,89.50
2019-01-05T03:23:42.329Z,90.00
2019-01-05T03:27:08.204Z,89.70
2019-01-05T03:30:39.717Z,90.00
2019-01-05T03:34:19.383Z,89.30
2019-01-05T03:37:45.023Z,89.20
2019-01-05T03:41:22.444Z,89.00
2019-01-05T03:44:53.555Z,88.70
2019-01-05T03:48:27.469Z,89.00
2019-01-05T03:51:52.515Z,89.00
2019-01-05T03:55:34.231Z,89.40
2019-01-05T03:59:10.031Z,89.50
2019-01-05T04:02:58.520Z,89.30
2019-01-05T04:06:44.102Z,89.30
2019-01-05T04:10:19.324Z,89.80
2019-01-05T04:13:43.799Z,89.80
2019-01-05T04:17:08.866Z,89.50
2019-01-05T04:20:22.469Z,89.60
2019-01-05T04:30:33.991Z,89.10
2019-01-05T04:34:08.147Z,89.60
2019-01-05T04:37:30.162Z,89.50
2019-01-05T04:41:01.235Z,89.10
2019-01-05T04:44:56.215Z,89.90
2019-01-05T04:48:27.034Z,88.70
2019-01-05T04:52:01.480Z,88.50
2019-01-05T04:55:36.954Z,88.60
2019-01-05T04:58:59.451Z,88.90
2019-01-05T05:02:08.285Z,88.70
2019-01-05T05:05:28.478Z,88.30
2019-01-05T05:09:03.380Z,87.90
2019-01-05T05:12:32.369Z,87.30
2019-01-05T05:16:01.309Z,87.10
2019-01-05T05:19:36.282Z,87.00
2019-01-05T05:22:56.788Z,86.70
2019-01-05T05:26:24.628Z,86.30
2019-01-05T05:30:39.202Z,85.90
2019-01-05T05:34:17.313Z,85.90
2019-01-05T05:37:40.614Z,85.70
2019-01-05T05:41:21.452Z,85.60
2019-01-05T05:45:12.772Z,85.60
2019-01-05T05:48:46.744Z,85.40
2019-01-05T05:52:13.806Z,85.20
2019-01-05T05:55:48.444Z,85.10
2019-01-05T05:59:21.222Z,85.20
2019-01-05T06:02:44.741Z,85.10
2019-01-05T06:05:59.442Z,85.20
2019-01-05T06:09:52.789Z,85.20
2019-01-05T06:13:31.362Z,85.40
2019-01-05T06:16:46.487Z,85.00
2019-01-05T06:20:37.170Z,85.40
2019-01-05T06:24:17.736Z,85.50
2019-01-05T06:28:11.047Z,85.50
2019-01-05T06:31:54.726Z,85.50
2019-01-05T06:35:39.890Z,85.30
2019-01-05T06:39:30.820Z,85.10
2019-01-05T06:43:01.797Z,84.70
2019-01-05T06:46:51.323Z,84.90
2019-01-05T06:50:15.318Z,85.10
2019-01-05T06:54:03.329Z,85.00
2019-01-05T06:57:37.263Z,85.70
2019-01-05T07:01:45.290Z,85.50
2019-01-05T07:05:08.796Z,85.40
2019-01-05T07:08:08.290Z,85.30
2019-01-05T07:11:36.407Z,85.30
2019-01-05T07:15:17.370Z,85.60
2019-01-05T07:19:06.061Z,85.70
2019-01-05T07:23:05.255Z,85.60
2019-01-05T07:26:18.335Z,85.60
2019-01-05T07:29:51.643Z,85.50
2019-01-05T07:33:14.421Z,85.70
2019-01-05T07:36:54.229Z,85.80
2019-01-05T07:40:27.071Z,85.90
2019-01-05T07:43:43.611Z,86.10
2019-01-05T07:47:23.769Z,86.00
2019-01-05T07:51:03.578Z,86.10
2019-01-05T07:54:26.437Z,86.10
2019-01-05T07:57:53.437Z,85.80
2019-01-05T08:01:34.422Z,85.50
2019-01-05T08:04:46.879Z,85.70
2019-01-05T08:08:31.024Z,85.50
2019-01-05T08:12:22.318Z,85.50
2019-01-05T08:16:00.626Z,85.50
2019-01-05T08:19:33.088Z,85.50
2019-01-05T08:23:16.996Z,85.70
2019-01-05T08:26:53.834Z,85.60
2019-01-05T08:30:49.700Z,85.60
2019-01-05T08:34:36.038Z,85.70
2019-01-05T08:37:53.222Z,85.80
2019-01-05T08:41:36.129Z,85.80
2019-01-05T08:45:00.817Z,85.90
2019-01-05T08:48:21.391Z,86.00
2019-01-05T08:51:58.712Z,86.00
2019-01-05T08:55:27.766Z,85.80
2019-01-05T08:59:00.442Z,85.50
2019-01-05T09:02:20.016Z,85.60
2019-01-05T09:06:14.383Z,86.00
2019-01-05T09:09:35.507Z,85.10
2019-01-05T09:13:02.020Z,85.00
2019-01-05T09:16:45.245Z,84.90
2019-01-05T09:20:19.486Z,84.80
2019-01-05T09:24:03.284Z,85.30
2019-01-05T09:27:26.154Z,85.50
2019-01-05T09:31:07.574Z,85.30
2019-01-05T09:43:54.560Z,84.60
2019-01-05T09:47:37.314Z,84.50
2019-01-05T09:50:59.659Z,84.10
2019-01-05T09:54:39.835Z,83.90
2019-01-05T09:58:32.083Z,84.30
2019-01-05T10:02:05.192Z,84.20
2019-01-05T10:16:59.690Z,84.00
2019-01-05T10:20:31.512Z,83.90
2019-01-05T10:24:26.878Z,83.60
2019-01-05T10:28:19.596Z,83.40
2019-01-05T10:38:50.308Z,83.80
2019-01-05T10:42:48.260Z,83.80
2019-01-05T10:46:03.934Z,83.80
2019-01-05T10:53:55.865Z,83.50
2019-01-05T10:57:16.968Z,83.30
2019-01-05T11:04:23.880Z,83.10
2019-01-05T11:07:50.535Z,83.00
2019-01-05T11:18:58.438Z,83.30
2019-01-05T11:26:19.666Z,82.90
2019-01-05T11:30:00.738Z,82.30
2019-01-05T11:33:41.263Z,82.70
2019-01-05T11:37:45.677Z,83.00
2019-01-05T11:54:45.860Z,83.10
2019-01-05T11:58:11.566Z,83.20
2019-01-05T12:01:32.479Z,82.70
2019-01-05T12:05:18.531Z,82.80
2019-01-05T12:12:35.298Z,82.40
2019-01-05T12:23:17.134Z,81.80
2019-01-05T12:26:55.084Z,81.60
2019-01-05T12:33:56.127Z,81.60
2019-01-05T12:37:19.489Z,81.60
2019-01-05T12:42:06.431Z,81.30
2019-01-05T12:49:06.897Z,80.90
2019-01-05T13:21:03.498Z,80.40
2019-01-05T14:13:36.575Z,82.70
2019-01-05T14:16:22.312Z,81.80
2019-01-05T14:19:23.084Z,80.90
2019-01-05T14:22:19.551Z,80.50
2019-01-05T14:25:05.755Z,80.40
2019-01-05T14:27:55.683Z,80.50
2019-01-05T14:30:42.404Z,80.80
2019-01-05T14:33:33.661Z,80.80
2019-01-05T14:36:20.791Z,80.60
2019-01-05T14:39:06.947Z,80.30
2019-01-05T14:41:52.821Z,80.50
2019-01-05T14:44:38.653Z,80.50
2019-01-05T14:47:34.841Z,80.60
2019-01-05T14:50:20.817Z,80.70
2019-01-05T14:53:06.740Z,80.70
2019-01-05T14:56:02.760Z,80.70
2019-01-05T14:58:49.963Z,80.40
2019-01-05T15:01:46.335Z,80.60
2019-01-05T15:04:32.303Z,80.60
2019-01-05T15:07:18.195Z,80.60
2019-01-05T15:10:08.104Z,80.80
2019-01-05T15:12:55.869Z,80.70
2019-01-05T15:15:42.978Z,80.40
2019-01-05T15:18:28.883Z,80.50
2019-01-05T15:21:28.265Z,80.50
2019-01-05T15:24:20.978Z,80.30
2019-01-05T15:27:06.808Z,80.60
2019-01-05T15:32:49.286Z,80.00
2019-01-05T15:35:48.662Z,80.10
2019-01-05T15:38:38.159Z,80.20
2019-01-05T15:41:21.188Z,80.10
2019-01-05T15:44:06.926Z,79.90
2019-01-05T15:46:59.788Z,79.70
2019-01-05T15:49:52.363Z,79.50
2019-01-05T15:52:53.388Z,79.60
2019-01-05T15:55:40.483Z,79.60
2019-01-05T15:58:40.078Z,79.30
2019-01-05T16:01:25.865Z,79.50
2019-01-05T16:04:28.017Z,79.80
2019-01-05T16:07:13.522Z,80.20
2019-01-05T16:10:06.474Z,80.00
2019-01-05T16:12:52.315Z,80.10
2019-01-05T16:15:51.019Z,80.10
2019-01-05T16:18:38.048Z,79.80
2019-01-05T16:21:24.014Z,80.00
2019-01-05T16:24:09.638Z,79.90
2019-01-05T16:26:59.017Z,80.10
2019-01-05T16:29:56.107Z,80.20
2019-01-05T16:32:53.648Z,80.10
2019-01-05T16:35:46.250Z,80.30
2019-01-05T16:38:45.722Z,80.30
2019-01-05T16:41:32.854Z,80.50
2019-01-05T16:44:28.646Z,80.50
2019-01-05T16:47:15.595Z,80.60
2019-01-05T16:50:14.492Z,80.50
2019-01-05T16:53:02.467Z,80.70
2019-01-05T16:55:55.198Z,80.60
2019-01-05T16:58:54.407Z,80.50
2019-01-05T17:01:50.066Z,80.70
2019-01-05T17:04:42.833Z,80.70
2019-01-05T17:07:28.340Z,80.70
2019-01-05T17:10:27.354Z,80.60
2019-01-05T17:13:11.434Z,81.40
2019-01-05T17:15:58.167Z,80.80
2019-01-05T17:19:03.288Z,80.60
2019-01-05T17:22:01.794Z,80.40
2019-01-05T17:24:58.086Z,80.20
2019-01-05T17:27:47.798Z,80.10
2019-01-05T17:30:34.889Z,80.20
2019-01-05T17:33:20.668Z,80.30
2019-01-05T17:36:06.756Z,80.30
2019-01-05T17:39:02.431Z,80.10
2019-01-05T17:41:54.888Z,80.20
2019-01-05T17:44:40.497Z,80.10
2019-01-05T17:47:29.913Z,80.00
2019-01-05T17:50:20.414Z,79.90
2019-01-05T17:53:14.975Z,79.80
2019-01-05T17:56:02.368Z,79.60
2019-01-05T18:02:13.285Z,79.70
2019-01-05T18:05:12.636Z,79.70
2019-01-05T18:07:58.460Z,79.70
2019-01-05T18:13:50.408Z,79.50
2019-01-05T18:16:41.653Z,79.40
2019-01-05T18:19:29.173Z,79.30
2019-01-05T18:22:08.357Z,79.70
2019-01-05T18:24:52.591Z,79.70
2019-01-05T18:27:43.847Z,79.50
2019-01-05T18:30:42.965Z,79.60
2019-01-05T18:33:20.841Z,79.30
2019-01-05T18:36:23.135Z,79.40
2019-01-05T18:39:25.716Z,79.00
2019-01-05T18:42:14.245Z,79.30
2019-01-05T18:44:58.241Z,79.40
2019-01-05T18:51:23.487Z,79.20
2019-01-05T18:54:08.865Z,79.60
2019-01-05T18:56:56.734Z,79.00
2019-01-05T18:59:42.551Z,78.90
2019-01-05T19:02:29.729Z,78.90
2019-01-05T19:05:09.266Z,78.60
2019-01-05T19:08:05.117Z,77.70
2019-01-05T19:10:52.113Z,78.30
2019-01-05T19:13:48.537Z,78.20
2019-01-05T19:16:39.869Z,78.20
2019-01-05T19:19:25.425Z,78.40
2019-01-05T19:22:11.208Z,78.70
2019-01-05T19:25:03.694Z,78.80
2019-01-05T19:27:53.437Z,78.60
2019-01-05T19:30:45.098Z,78.70
2019-01-05T19:33:30.790Z,78.60
2019-01-05T19:36:17.721Z,78.40
2019-01-05T19:39:04.607Z,78.40
2019-01-05T19:41:50.557Z,78.30
2019-01-05T19:44:38.701Z,78.40
2019-01-05T19:47:34.913Z,78.40
2019-01-05T19:50:26.889Z,78.30
2019-01-05T19:53:11.516Z,78.40
2019-01-05T19:55:58.246Z,78.60
2019-01-05T19:59:03.951Z,78.60
2019-01-05T20:01:44.830Z,78.60
2019-01-05T20:04:49.865Z,78.60
2019-01-05T20:07:34.020Z,78.60
2019-01-05T20:10:19.605Z,78.40
2019-01-05T20:13:03.666Z,78.30
2019-01-05T20:15:49.203Z,78.90
2019-01-05T20:18:34.966Z,77.90
2019-01-05T20:21:14.483Z,78.10
2019-01-05T20:24:07.351Z,78.10
2019-01-05T20:27:02.376Z,78.00
2019-01-05T20:29:52.868Z,78.10
2019-01-05T20:32:46.079Z,78.20
2019-01-05T20:35:32.295Z,78.30
2019-01-05T20:38:22.682Z,78.00
2019-01-05T20:41:08.296Z,78.10
2019-01-05T20:43:55.144Z,78.10
2019-01-05T20:46:40.892Z,78.20
2019-01-05T20:49:42.134Z,78.00
2019-01-05T20:52:29.478Z,77.90
2019-01-05T20:58:11.176Z,78.10
2019-01-05T21:00:57.479Z,77.70
2019-01-05T21:03:54.601Z,77.80
2019-01-05T21:06:38.924Z,77.80
2019-01-05T21:09:25.390Z,77.90
2019-01-05T21:12:10.420Z,78.10
2019-01-05T21:14:56.308Z,77.90
2019-01-05T21:17:41.452Z,77.70
2019-01-05T21:20:28.610Z,77.70
2019-01-05T21:23:24.723Z,77.80
2019-01-05T21:26:24.479Z,77.50
2019-01-05T21:29:05.739Z,77.50
2019-01-05T21:31:55.148Z,77.30
2019-01-05T21:34:54.169Z,76.80
2019-01-05T21:37:32.043Z,76.60
2019-01-05T21:40:17.326Z,76.30
2019-01-05T21:43:03.392Z,76.40
2019-01-05T21:45:49.194Z,76.30
2019-01-05T21:48:34.654Z,76.50
2019-01-05T21:51:33.443Z,76.50
2019-01-05T21:54:20.697Z,76.70
2019-01-05T21:57:04.225Z,77.70
2019-01-05T22:00:03.598Z,77.00
2019-01-05T22:02:50.759Z,77.60
2019-01-05T22:05:31.913Z,77.30
2019-01-05T22:08:15.705Z,77.40
2019-01-05T22:11:01.352Z,77.50
2019-01-05T22:13:57.794Z,77.40
2019-01-05T22:16:38.927Z,77.30
2019-01-05T22:19:25.270Z,77.30
2019-01-05T22:22:05.944Z,77.40
2019-01-05T22:24:58.670Z,77.50
2019-01-05T22:27:44.431Z,77.40
2019-01-05T22:30:28.814Z,77.20
2019-01-05T22:33:33.795Z,77.10
2019-01-05T22:36:31.120Z,77.30
2019-01-05T22:39:17.838Z,77.40
2019-01-05T22:42:16.921Z,77.20
2019-01-05T22:45:07.018Z,77.20
2019-01-05T22:48:09.103Z,77.20
2019-01-05T22:50:54.713Z,77.30
2019-01-05T22:53:41.737Z,77.50
2019-01-05T22:56:46.605Z,77.30
2019-01-05T22:59:47.573Z,77.50
2019-01-05T23:02:49.853Z,77.30
2019-01-05T23:05:36.700Z,77.40
2019-01-05T23:08:26.564Z,77.60
2019-01-05T23:11:10.774Z,77.70
2019-01-05T23:14:12.266Z,77.10
2019-01-05T23:16:55.332Z,77.50
2019-01-05T23:19:48.439Z,77.50
2019-01-05T23:22:41.722Z,77.60
2019-01-05T23:25:28.658Z,77.40
2019-01-05T23:28:13.807Z,77.60
2019-01-05T23:31:06.276Z,77.40
2019-01-05T23:33:59.402Z,77.30
2019-01-05T23:37:05.162Z,77.50
2019-01-05T23:39:51.227Z,77.30
2019-01-05T23:42:33.243Z,77.20
2019-01-05T23:45:26.618Z,77.30
2019-01-05T23:48:16.545Z,77.20
2019-01-05T23:51:09.443Z,77.10
2019-01-05T23:53:59.199Z,77.10
2019-01-05T23:56:48.915Z,77.00
2019-01-05T23:59:34.955Z,76.80
